sensor_id;sensor_type;location;lat;lon;timestamp;P1;durP1;ratioP1;P2;durP2;ratioP2
20232;SDS011;37438;55.674;13.074;2024-01-10T00:01:11;40.78;;;20.40;;
20232;SDS011;37438;55.674;13.074;2024-01-10T00:04:16;51.47;;;21.85;;
20232;SDS011;37438;55.674;13.074;2024-01-10T00:07:21;41.65;;;17.52;;
20232;SDS011;37438;55.674;13.074;2024-01-10T00:10:26;35.17;;;15.52;;
20232;SDS011;37438;55.674;13.074;2024-01-10T00:13:31;37.25;;;15.63;;
20232;SDS011;37438;55.674;13.074;2024-01-10T00:16:36;40.85;;;15.88;;
20232;SDS011;37438;55.674;13.074;2024-01-10T00:19:41;35.65;;;15.00;;
20232;SDS011;37438;55.674;13.074;2024-01-10T00:22:46;27.38;;;13.25;;
20232;SDS011;37438;55.674;13.074;2024-01-10T00:25:51;25.65;;;12.45;;
20232;SDS011;37438;55.674;13.074;2024-01-10T00:28:56;18.23;;;9.82;;
20232;SDS011;37438;55.674;13.074;2024-01-10T00:32:07;19.10;;;9.95;;
20232;SDS011;37438;55.674;13.074;2024-01-10T00:35:12;18.15;;;9.68;;
20232;SDS011;37438;55.674;13.074;2024-01-10T00:38:17;15.68;;;8.48;;
20232;SDS011;37438;55.674;13.074;2024-01-10T00:41:22;20.23;;;10.05;;
20232;SDS011;37438;55.674;13.074;2024-01-10T00:44:27;13.60;;;8.57;;
20232;SDS011;37438;55.674;13.074;2024-01-10T00:47:32;9.98;;;5.95;;
20232;SDS011;37438;55.674;13.074;2024-01-10T00:50:37;11.50;;;6.13;;
20232;SDS011;37438;55.674;13.074;2024-01-10T00:53:41;13.77;;;7.22;;
20232;SDS011;37438;55.674;13.074;2024-01-10T00:56:46;12.02;;;6.82;;
20232;SDS011;37438;55.674;13.074;2024-01-10T00:59:51;12.98;;;6.88;;
20232;SDS011;37438;55.674;13.074;2024-01-10T01:02:56;13.25;;;6.97;;
20232;SDS011;37438;55.674;13.074;2024-01-10T01:06:01;14.18;;;7.68;;
20232;SDS011;37438;55.674;13.074;2024-01-10T01:09:05;13.85;;;6.68;;
20232;SDS011;37438;55.674;13.074;2024-01-10T01:12:11;12.00;;;6.70;;
20232;SDS011;37438;55.674;13.074;2024-01-10T01:15:16;11.40;;;6.05;;
20232;SDS011;37438;55.674;13.074;2024-01-10T01:18:21;14.20;;;8.15;;
20232;SDS011;37438;55.674;13.074;2024-01-10T01:21:26;14.20;;;7.18;;
20232;SDS011;37438;55.674;13.074;2024-01-10T01:24:30;9.68;;;5.25;;
20232;SDS011;37438;55.674;13.074;2024-01-10T01:27:36;12.90;;;7.65;;
20232;SDS011;37438;55.674;13.074;2024-01-10T01:30:41;15.45;;;8.90;;
20232;SDS011;37438;55.674;13.074;2024-01-10T01:33:46;13.85;;;7.93;;
20232;SDS011;37438;55.674;13.074;2024-01-10T01:36:51;16.65;;;8.80;;
20232;SDS011;37438;55.674;13.074;2024-01-10T01:39:56;19.20;;;8.85;;
20232;SDS011;37438;55.674;13.074;2024-01-10T01:43:01;15.27;;;8.75;;
20232;SDS011;37438;55.674;13.074;2024-01-10T01:46:05;13.93;;;8.35;;
20232;SDS011;37438;55.674;13.074;2024-01-10T01:49:10;14.25;;;8.65;;
20232;SDS011;37438;55.674;13.074;2024-01-10T01:55:20;14.60;;;8.27;;
20232;SDS011;37438;55.674;13.074;2024-01-10T01:58:26;18.48;;;9.40;;
20232;SDS011;37438;55.674;13.074;2024-01-10T02:01:31;15.05;;;8.93;;
20232;SDS011;37438;55.674;13.074;2024-01-10T02:07:41;15.57;;;7.82;;
20232;SDS011;37438;55.674;13.074;2024-01-10T02:10:46;9.82;;;6.07;;
20232;SDS011;37438;55.674;13.074;2024-01-10T02:13:51;19.25;;;10.02;;
20232;SDS011;37438;55.674;13.074;2024-01-10T02:16:58;11.95;;;7.28;;
20232;SDS011;37438;55.674;13.074;2024-01-10T02:20:10;13.05;;;6.93;;
20232;SDS011;37438;55.674;13.074;2024-01-10T02:23:15;14.25;;;8.02;;
20232;SDS011;37438;55.674;13.074;2024-01-10T02:26:20;15.25;;;7.07;;
20232;SDS011;37438;55.674;13.074;2024-01-10T02:29:25;10.43;;;6.25;;
20232;SDS011;37438;55.674;13.074;2024-01-10T02:32:30;12.13;;;6.63;;
20232;SDS011;37438;55.674;13.074;2024-01-10T02:35:35;15.52;;;7.22;;
20232;SDS011;37438;55.674;13.074;2024-01-10T02:38:40;13.30;;;8.00;;
20232;SDS011;37438;55.674;13.074;2024-01-10T02:41:45;11.93;;;7.68;;
20232;SDS011;37438;55.674;13.074;2024-01-10T02:44:50;16.05;;;7.95;;
20232;SDS011;37438;55.674;13.074;2024-01-10T02:47:55;11.02;;;6.20;;
20232;SDS011;37438;55.674;13.074;2024-01-10T02:51:00;13.60;;;7.82;;
20232;SDS011;37438;55.674;13.074;2024-01-10T02:54:05;13.48;;;6.43;;
20232;SDS011;37438;55.674;13.074;2024-01-10T02:57:09;12.35;;;7.25;;
20232;SDS011;37438;55.674;13.074;2024-01-10T03:00:14;10.40;;;7.18;;
20232;SDS011;37438;55.674;13.074;2024-01-10T03:03:19;12.07;;;6.68;;
20232;SDS011;37438;55.674;13.074;2024-01-10T03:06:24;12.93;;;6.55;;
20232;SDS011;37438;55.674;13.074;2024-01-10T03:09:30;12.57;;;7.30;;
20232;SDS011;37438;55.674;13.074;2024-01-10T03:12:34;11.90;;;6.95;;
20232;SDS011;37438;55.674;13.074;2024-01-10T03:15:41;9.07;;;6.22;;
20232;SDS011;37438;55.674;13.074;2024-01-10T03:18:46;9.68;;;5.07;;
20232;SDS011;37438;55.674;13.074;2024-01-10T03:21:51;10.45;;;5.63;;
20232;SDS011;37438;55.674;13.074;2024-01-10T03:24:56;6.15;;;4.95;;
20232;SDS011;37438;55.674;13.074;2024-01-10T03:28:01;6.85;;;4.88;;
20232;SDS011;37438;55.674;13.074;2024-01-10T03:31:06;9.10;;;5.38;;
20232;SDS011;37438;55.674;13.074;2024-01-10T03:34:11;6.43;;;4.43;;
20232;SDS011;37438;55.674;13.074;2024-01-10T03:37:16;8.60;;;4.47;;
20232;SDS011;37438;55.674;13.074;2024-01-10T03:40:22;6.30;;;4.85;;
20232;SDS011;37438;55.674;13.074;2024-01-10T03:43:27;6.72;;;5.15;;
20232;SDS011;37438;55.674;13.074;2024-01-10T03:49:37;7.37;;;5.70;;
20232;SDS011;37438;55.674;13.074;2024-01-10T03:52:42;5.82;;;4.80;;
20232;SDS011;37438;55.674;13.074;2024-01-10T03:55:47;5.88;;;4.63;;
20232;SDS011;37438;55.674;13.074;2024-01-10T03:58:52;6.45;;;5.47;;
20232;SDS011;37438;55.674;13.074;2024-01-10T04:01:57;8.27;;;5.72;;
20232;SDS011;37438;55.674;13.074;2024-01-10T04:05:08;10.32;;;6.43;;
20232;SDS011;37438;55.674;13.074;2024-01-10T04:08:17;6.60;;;5.03;;
20232;SDS011;37438;55.674;13.074;2024-01-10T04:11:22;7.25;;;4.85;;
20232;SDS011;37438;55.674;13.074;2024-01-10T04:14:26;7.15;;;5.07;;
20232;SDS011;37438;55.674;13.074;2024-01-10T04:17:31;6.63;;;4.78;;
20232;SDS011;37438;55.674;13.074;2024-01-10T04:20:36;4.95;;;4.45;;
20232;SDS011;37438;55.674;13.074;2024-01-10T04:23:40;12.00;;;6.57;;
20232;SDS011;37438;55.674;13.074;2024-01-10T04:26:45;5.43;;;4.70;;
20232;SDS011;37438;55.674;13.074;2024-01-10T04:29:50;7.60;;;5.38;;
20232;SDS011;37438;55.674;13.074;2024-01-10T04:32:55;5.68;;;5.07;;
20232;SDS011;37438;55.674;13.074;2024-01-10T04:35:59;8.35;;;6.70;;
20232;SDS011;37438;55.674;13.074;2024-01-10T04:39:04;9.27;;;6.75;;
20232;SDS011;37438;55.674;13.074;2024-01-10T04:42:12;8.05;;;7.25;;
20232;SDS011;37438;55.674;13.074;2024-01-10T04:45:17;12.35;;;7.80;;
20232;SDS011;37438;55.674;13.074;2024-01-10T04:48:22;13.05;;;8.05;;
20232;SDS011;37438;55.674;13.074;2024-01-10T04:51:26;12.57;;;6.05;;
20232;SDS011;37438;55.674;13.074;2024-01-10T04:54:32;7.80;;;7.00;;
20232;SDS011;37438;55.674;13.074;2024-01-10T04:57:36;9.45;;;7.38;;
20232;SDS011;37438;55.674;13.074;2024-01-10T05:00:41;10.82;;;7.22;;
20232;SDS011;37438;55.674;13.074;2024-01-10T05:03:46;8.05;;;7.25;;
20232;SDS011;37438;55.674;13.074;2024-01-10T05:06:51;9.70;;;6.78;;
20232;SDS011;37438;55.674;13.074;2024-01-10T05:09:56;7.90;;;6.95;;
20232;SDS011;37438;55.674;13.074;2024-01-10T05:13:01;7.90;;;7.10;;
20232;SDS011;37438;55.674;13.074;2024-01-10T05:16:06;8.10;;;6.22;;
20232;SDS011;37438;55.674;13.074;2024-01-10T05:19:11;11.55;;;7.78;;
20232;SDS011;37438;55.674;13.074;2024-01-10T05:22:15;8.60;;;6.25;;
20232;SDS011;37438;55.674;13.074;2024-01-10T05:25:20;11.15;;;7.35;;
20232;SDS011;37438;55.674;13.074;2024-01-10T05:28:25;9.02;;;5.90;;
20232;SDS011;37438;55.674;13.074;2024-01-10T05:31:30;7.47;;;6.60;;
20232;SDS011;37438;55.674;13.074;2024-01-10T05:34:35;11.77;;;8.13;;
20232;SDS011;37438;55.674;13.074;2024-01-10T05:37:40;7.60;;;6.28;;
20232;SDS011;37438;55.674;13.074;2024-01-10T05:40:45;8.73;;;6.45;;
20232;SDS011;37438;55.674;13.074;2024-01-10T05:43:50;5.63;;;5.10;;
20232;SDS011;37438;55.674;13.074;2024-01-10T05:46:54;8.05;;;5.57;;
20232;SDS011;37438;55.674;13.074;2024-01-10T05:50:02;10.77;;;6.13;;
20232;SDS011;37438;55.674;13.074;2024-01-10T05:53:10;8.48;;;6.03;;
20232;SDS011;37438;55.674;13.074;2024-01-10T05:56:17;7.25;;;5.35;;
20232;SDS011;37438;55.674;13.074;2024-01-10T05:59:22;8.75;;;5.47;;
20232;SDS011;37438;55.674;13.074;2024-01-10T06:02:32;6.57;;;5.32;;
20232;SDS011;37438;55.674;13.074;2024-01-10T06:05:37;10.20;;;6.55;;
20232;SDS011;37438;55.674;13.074;2024-01-10T06:08:42;10.25;;;6.32;;
20232;SDS011;37438;55.674;13.074;2024-01-10T06:11:47;9.70;;;6.22;;
20232;SDS011;37438;55.674;13.074;2024-01-10T06:17:57;7.03;;;5.70;;
20232;SDS011;37438;55.674;13.074;2024-01-10T06:21:02;9.25;;;7.13;;
20232;SDS011;37438;55.674;13.074;2024-01-10T06:24:07;12.65;;;6.53;;
20232;SDS011;37438;55.674;13.074;2024-01-10T06:27:13;13.32;;;6.55;;
20232;SDS011;37438;55.674;13.074;2024-01-10T06:30:17;8.40;;;6.70;;
20232;SDS011;37438;55.674;13.074;2024-01-10T06:33:22;11.15;;;7.68;;
20232;SDS011;37438;55.674;13.074;2024-01-10T06:36:27;8.90;;;7.28;;
20232;SDS011;37438;55.674;13.074;2024-01-10T06:39:32;8.45;;;6.35;;
20232;SDS011;37438;55.674;13.074;2024-01-10T06:42:37;8.60;;;5.97;;
20232;SDS011;37438;55.674;13.074;2024-01-10T06:45:43;12.95;;;6.90;;
20232;SDS011;37438;55.674;13.074;2024-01-10T06:48:48;9.27;;;6.85;;
20232;SDS011;37438;55.674;13.074;2024-01-10T06:51:53;8.88;;;6.47;;
20232;SDS011;37438;55.674;13.074;2024-01-10T06:54:58;6.68;;;4.93;;
20232;SDS011;37438;55.674;13.074;2024-01-10T06:58:03;7.40;;;4.93;;
20232;SDS011;37438;55.674;13.074;2024-01-10T07:01:11;10.05;;;6.25;;
20232;SDS011;37438;55.674;13.074;2024-01-10T07:04:18;11.13;;;6.05;;
20232;SDS011;37438;55.674;13.074;2024-01-10T07:07:28;10.00;;;6.35;;
20232;SDS011;37438;55.674;13.074;2024-01-10T07:10:32;6.07;;;4.63;;
20232;SDS011;37438;55.674;13.074;2024-01-10T07:16:43;9.93;;;7.07;;
20232;SDS011;37438;55.674;13.074;2024-01-10T07:19:50;9.55;;;7.72;;
20232;SDS011;37438;55.674;13.074;2024-01-10T07:22:55;14.05;;;7.03;;
20232;SDS011;37438;55.674;13.074;2024-01-10T07:26:00;10.48;;;5.72;;
20232;SDS011;37438;55.674;13.074;2024-01-10T07:29:05;9.18;;;5.10;;
20232;SDS011;37438;55.674;13.074;2024-01-10T07:32:12;6.50;;;5.25;;
20232;SDS011;37438;55.674;13.074;2024-01-10T07:35:17;13.68;;;8.35;;
20232;SDS011;37438;55.674;13.074;2024-01-10T07:38:22;9.95;;;6.45;;
20232;SDS011;37438;55.674;13.074;2024-01-10T07:41:27;12.25;;;6.32;;
20232;SDS011;37438;55.674;13.074;2024-01-10T07:44:33;11.27;;;7.05;;
20232;SDS011;37438;55.674;13.074;2024-01-10T07:47:38;10.50;;;8.52;;
20232;SDS011;37438;55.674;13.074;2024-01-10T07:50:43;10.43;;;7.50;;
20232;SDS011;37438;55.674;13.074;2024-01-10T07:56:52;10.13;;;6.63;;
20232;SDS011;37438;55.674;13.074;2024-01-10T07:59:58;10.15;;;7.50;;
20232;SDS011;37438;55.674;13.074;2024-01-10T08:03:03;12.30;;;8.82;;
20232;SDS011;37438;55.674;13.074;2024-01-10T08:06:08;13.93;;;8.35;;
20232;SDS011;37438;55.674;13.074;2024-01-10T08:09:23;13.60;;;8.13;;
20232;SDS011;37438;55.674;13.074;2024-01-10T08:12:28;12.00;;;7.55;;
20232;SDS011;37438;55.674;13.074;2024-01-10T08:15:33;16.05;;;8.15;;
20232;SDS011;37438;55.674;13.074;2024-01-10T08:21:45;15.45;;;8.60;;
20232;SDS011;37438;55.674;13.074;2024-01-10T08:24:50;12.63;;;7.93;;
20232;SDS011;37438;55.674;13.074;2024-01-10T08:27:55;14.57;;;8.10;;
20232;SDS011;37438;55.674;13.074;2024-01-10T08:31:01;13.82;;;9.43;;
20232;SDS011;37438;55.674;13.074;2024-01-10T08:34:09;11.55;;;7.88;;
20232;SDS011;37438;55.674;13.074;2024-01-10T08:37:14;17.48;;;9.15;;
20232;SDS011;37438;55.674;13.074;2024-01-10T08:40:21;18.55;;;9.32;;
20232;SDS011;37438;55.674;13.074;2024-01-10T08:43:29;20.80;;;9.70;;
20232;SDS011;37438;55.674;13.074;2024-01-10T08:46:34;12.13;;;9.10;;
20232;SDS011;37438;55.674;13.074;2024-01-10T08:49:39;16.17;;;9.82;;
20232;SDS011;37438;55.674;13.074;2024-01-10T08:52:44;13.52;;;10.23;;
20232;SDS011;37438;55.674;13.074;2024-01-10T08:55:49;14.73;;;10.48;;
20232;SDS011;37438;55.674;13.074;2024-01-10T08:58:54;15.93;;;10.52;;
20232;SDS011;37438;55.674;13.074;2024-01-10T09:01:59;15.25;;;11.73;;
20232;SDS011;37438;55.674;13.074;2024-01-10T09:05:04;14.88;;;10.82;;
20232;SDS011;37438;55.674;13.074;2024-01-10T09:08:12;12.63;;;9.50;;
20232;SDS011;37438;55.674;13.074;2024-01-10T09:11:17;16.88;;;9.02;;
20232;SDS011;37438;55.674;13.074;2024-01-10T09:14:22;13.65;;;8.45;;
20232;SDS011;37438;55.674;13.074;2024-01-10T09:17:26;13.10;;;9.02;;
20232;SDS011;37438;55.674;13.074;2024-01-10T09:20:34;12.00;;;8.93;;
20232;SDS011;37438;55.674;13.074;2024-01-10T09:23:39;12.98;;;7.47;;
20232;SDS011;37438;55.674;13.074;2024-01-10T09:26:44;11.63;;;8.27;;
20232;SDS011;37438;55.674;13.074;2024-01-10T09:32:55;16.13;;;7.65;;
20232;SDS011;37438;55.674;13.074;2024-01-10T09:36:00;18.67;;;9.07;;
20232;SDS011;37438;55.674;13.074;2024-01-10T09:39:05;13.60;;;7.15;;
20232;SDS011;37438;55.674;13.074;2024-01-10T09:42:17;22.20;;;8.25;;
20232;SDS011;37438;55.674;13.074;2024-01-10T09:45:23;16.35;;;7.80;;
20232;SDS011;37438;55.674;13.074;2024-01-10T09:48:29;16.48;;;8.15;;
20232;SDS011;37438;55.674;13.074;2024-01-10T09:54:39;19.30;;;8.73;;
20232;SDS011;37438;55.674;13.074;2024-01-10T09:57:44;13.82;;;8.02;;
20232;SDS011;37438;55.674;13.074;2024-01-10T10:00:49;20.77;;;8.55;;
20232;SDS011;37438;55.674;13.074;2024-01-10T10:03:54;18.20;;;7.93;;
20232;SDS011;37438;55.674;13.074;2024-01-10T10:07:01;13.98;;;7.78;;
20232;SDS011;37438;55.674;13.074;2024-01-10T10:10:07;14.73;;;8.68;;
20232;SDS011;37438;55.674;13.074;2024-01-10T10:13:23;12.52;;;7.97;;
20232;SDS011;37438;55.674;13.074;2024-01-10T10:16:28;18.08;;;9.15;;
20232;SDS011;37438;55.674;13.074;2024-01-10T10:19:33;13.70;;;8.30;;
20232;SDS011;37438;55.674;13.074;2024-01-10T10:22:57;24.77;;;9.82;;
20232;SDS011;37438;55.674;13.074;2024-01-10T10:26:13;17.48;;;10.32;;
20232;SDS011;37438;55.674;13.074;2024-01-10T10:29:25;34.22;;;9.82;;
20232;SDS011;37438;55.674;13.074;2024-01-10T10:32:30;18.48;;;10.70;;
20232;SDS011;37438;55.674;13.074;2024-01-10T10:35:35;18.67;;;10.40;;
20232;SDS011;37438;55.674;13.074;2024-01-10T10:38:46;24.73;;;9.98;;
20232;SDS011;37438;55.674;13.074;2024-01-10T10:41:51;16.35;;;9.57;;
20232;SDS011;37438;55.674;13.074;2024-01-10T10:45:01;27.15;;;10.40;;
20232;SDS011;37438;55.674;13.074;2024-01-10T10:48:07;25.58;;;10.90;;
20232;SDS011;37438;55.674;13.074;2024-01-10T10:51:18;40.72;;;12.48;;
20232;SDS011;37438;55.674;13.074;2024-01-10T10:54:24;37.20;;;12.60;;
20232;SDS011;37438;55.674;13.074;2024-01-10T10:57:30;28.15;;;11.57;;
20232;SDS011;37438;55.674;13.074;2024-01-10T11:00:36;31.75;;;12.00;;
20232;SDS011;37438;55.674;13.074;2024-01-10T11:03:42;34.33;;;14.30;;
20232;SDS011;37438;55.674;13.074;2024-01-10T11:06:49;25.52;;;11.68;;
20232;SDS011;37438;55.674;13.074;2024-01-10T11:16:47;24.92;;;11.55;;
20232;SDS011;37438;55.674;13.074;2024-01-10T11:26:08;29.02;;;12.05;;
20232;SDS011;37438;55.674;13.074;2024-01-10T11:29:14;28.98;;;12.27;;
20232;SDS011;37438;55.674;13.074;2024-01-10T11:32:22;49.15;;;13.60;;
20232;SDS011;37438;55.674;13.074;2024-01-10T11:35:29;26.35;;;11.52;;
20232;SDS011;37438;55.674;13.074;2024-01-10T11:38:54;33.63;;;12.40;;
20232;SDS011;37438;55.674;13.074;2024-01-10T11:42:01;40.42;;;12.23;;
20232;SDS011;37438;55.674;13.074;2024-01-10T11:45:06;30.73;;;12.07;;
20232;SDS011;37438;55.674;13.074;2024-01-10T11:48:12;26.95;;;11.85;;
20232;SDS011;37438;55.674;13.074;2024-01-10T11:51:19;33.40;;;13.35;;
20232;SDS011;37438;55.674;13.074;2024-01-10T11:57:41;26.08;;;11.45;;
20232;SDS011;37438;55.674;13.074;2024-01-10T12:00:46;25.77;;;11.77;;
20232;SDS011;37438;55.674;13.074;2024-01-10T12:03:51;27.38;;;10.52;;
20232;SDS011;37438;55.674;13.074;2024-01-10T12:07:18;29.38;;;11.90;;
20232;SDS011;37438;55.674;13.074;2024-01-10T12:10:25;20.20;;;9.93;;
20232;SDS011;37438;55.674;13.074;2024-01-10T12:13:31;34.30;;;11.05;;
20232;SDS011;37438;55.674;13.074;2024-01-10T12:16:35;21.67;;;10.70;;
20232;SDS011;37438;55.674;13.074;2024-01-10T12:19:42;25.23;;;10.70;;
20232;SDS011;37438;55.674;13.074;2024-01-10T12:22:50;13.10;;;8.93;;
20232;SDS011;37438;55.674;13.074;2024-01-10T12:25:55;11.55;;;6.63;;
20232;SDS011;37438;55.674;13.074;2024-01-10T12:29:00;9.68;;;4.93;;
20232;SDS011;37438;55.674;13.074;2024-01-10T12:32:07;8.90;;;6.78;;
20232;SDS011;37438;55.674;13.074;2024-01-10T12:35:13;13.77;;;6.18;;
20232;SDS011;37438;55.674;13.074;2024-01-10T12:38:22;7.47;;;4.90;;
20232;SDS011;37438;55.674;13.074;2024-01-10T12:41:27;8.32;;;4.85;;
20232;SDS011;37438;55.674;13.074;2024-01-10T12:44:32;14.68;;;5.18;;
20232;SDS011;37438;55.674;13.074;2024-01-10T12:47:37;12.95;;;6.50;;
20232;SDS011;37438;55.674;13.074;2024-01-10T12:50:44;17.70;;;8.70;;
20232;SDS011;37438;55.674;13.074;2024-01-10T12:53:49;15.10;;;8.55;;
20232;SDS011;37438;55.674;13.074;2024-01-10T12:56:53;6.72;;;5.32;;
20232;SDS011;37438;55.674;13.074;2024-01-10T13:00:00;13.38;;;5.65;;
20232;SDS011;37438;55.674;13.074;2024-01-10T13:03:09;13.48;;;5.85;;
20232;SDS011;37438;55.674;13.074;2024-01-10T13:06:14;7.80;;;4.07;;
20232;SDS011;37438;55.674;13.074;2024-01-10T13:09:23;8.15;;;4.68;;
20232;SDS011;37438;55.674;13.074;2024-01-10T13:12:28;6.22;;;4.20;;
20232;SDS011;37438;55.674;13.074;2024-01-10T13:15:34;14.85;;;5.72;;
20232;SDS011;37438;55.674;13.074;2024-01-10T13:18:39;11.10;;;5.70;;
20232;SDS011;37438;55.674;13.074;2024-01-10T13:21:45;8.57;;;6.35;;
20232;SDS011;37438;55.674;13.074;2024-01-10T13:24:50;11.18;;;4.53;;
20232;SDS011;37438;55.674;13.074;2024-01-10T13:27:56;6.05;;;4.35;;
20232;SDS011;37438;55.674;13.074;2024-01-10T13:31:01;10.55;;;5.07;;
20232;SDS011;37438;55.674;13.074;2024-01-10T13:34:06;9.40;;;5.63;;
20232;SDS011;37438;55.674;13.074;2024-01-10T13:37:11;10.57;;;5.72;;
20232;SDS011;37438;55.674;13.074;2024-01-10T13:40:16;15.30;;;7.75;;
20232;SDS011;37438;55.674;13.074;2024-01-10T13:43:24;16.95;;;7.55;;
20232;SDS011;37438;55.674;13.074;2024-01-10T13:46:29;14.40;;;8.55;;
20232;SDS011;37438;55.674;13.074;2024-01-10T13:49:33;14.32;;;8.15;;
20232;SDS011;37438;55.674;13.074;2024-01-10T13:52:38;16.15;;;7.32;;
20232;SDS011;37438;55.674;13.074;2024-01-10T13:55:43;17.50;;;9.70;;
20232;SDS011;37438;55.674;13.074;2024-01-10T13:58:51;15.55;;;8.50;;
20232;SDS011;37438;55.674;13.074;2024-01-10T14:01:55;19.55;;;10.75;;
20232;SDS011;37438;55.674;13.074;2024-01-10T14:05:02;25.85;;;9.68;;
20232;SDS011;37438;55.674;13.074;2024-01-10T14:08:10;21.98;;;9.18;;
20232;SDS011;37438;55.674;13.074;2024-01-10T14:11:15;14.80;;;7.88;;
20232;SDS011;37438;55.674;13.074;2024-01-10T14:14:20;12.02;;;6.30;;
20232;SDS011;37438;55.674;13.074;2024-01-10T14:17:29;27.67;;;9.98;;
20232;SDS011;37438;55.674;13.074;2024-01-10T14:20:34;21.38;;;10.38;;
20232;SDS011;37438;55.674;13.074;2024-01-10T14:23:41;33.22;;;8.85;;
20232;SDS011;37438;55.674;13.074;2024-01-10T14:26:45;23.08;;;9.25;;
20232;SDS011;37438;55.674;13.074;2024-01-10T14:29:50;25.95;;;8.50;;
20232;SDS011;37438;55.674;13.074;2024-01-10T14:32:55;27.30;;;8.88;;
20232;SDS011;37438;55.674;13.074;2024-01-10T14:36:01;20.27;;;8.60;;
20232;SDS011;37438;55.674;13.074;2024-01-10T14:39:08;21.08;;;9.20;;
20232;SDS011;37438;55.674;13.074;2024-01-10T14:42:16;53.28;;;9.15;;
20232;SDS011;37438;55.674;13.074;2024-01-10T14:45:21;42.90;;;11.23;;
20232;SDS011;37438;55.674;13.074;2024-01-10T14:48:26;25.48;;;9.52;;
20232;SDS011;37438;55.674;13.074;2024-01-10T14:51:31;24.83;;;8.27;;
20232;SDS011;37438;55.674;13.074;2024-01-10T14:54:36;25.25;;;7.95;;
20232;SDS011;37438;55.674;13.074;2024-01-10T14:57:41;23.05;;;6.00;;
20232;SDS011;37438;55.674;13.074;2024-01-10T15:00:46;21.60;;;8.43;;
20232;SDS011;37438;55.674;13.074;2024-01-10T15:03:51;25.15;;;8.40;;
20232;SDS011;37438;55.674;13.074;2024-01-10T15:06:56;68.20;;;9.20;;
20232;SDS011;37438;55.674;13.074;2024-01-10T15:10:01;55.75;;;8.10;;
20232;SDS011;37438;55.674;13.074;2024-01-10T15:13:09;51.83;;;8.52;;
20232;SDS011;37438;55.674;13.074;2024-01-10T15:16:14;65.65;;;9.10;;
20232;SDS011;37438;55.674;13.074;2024-01-10T15:19:18;39.33;;;6.28;;
20232;SDS011;37438;55.674;13.074;2024-01-10T15:22:24;69.18;;;8.18;;
20232;SDS011;37438;55.674;13.074;2024-01-10T15:25:30;49.30;;;8.30;;
20232;SDS011;37438;55.674;13.074;2024-01-10T15:28:35;52.70;;;7.75;;
20232;SDS011;37438;55.674;13.074;2024-01-10T15:31:40;43.63;;;6.72;;
20232;SDS011;37438;55.674;13.074;2024-01-10T15:34:46;55.90;;;7.88;;
20232;SDS011;37438;55.674;13.074;2024-01-10T15:37:51;23.60;;;4.80;;
20232;SDS011;37438;55.674;13.074;2024-01-10T15:40:59;43.55;;;6.65;;
20232;SDS011;37438;55.674;13.074;2024-01-10T15:44:05;71.72;;;7.03;;
20232;SDS011;37438;55.674;13.074;2024-01-10T15:47:11;88.50;;;8.23;;
20232;SDS011;37438;55.674;13.074;2024-01-10T15:50:16;65.65;;;7.18;;
20232;SDS011;37438;55.674;13.074;2024-01-10T15:53:21;29.35;;;6.35;;
20232;SDS011;37438;55.674;13.074;2024-01-10T15:56:27;30.92;;;6.93;;
20232;SDS011;37438;55.674;13.074;2024-01-10T15:59:32;49.45;;;7.32;;
20232;SDS011;37438;55.674;13.074;2024-01-10T16:05:42;32.75;;;6.20;;
20232;SDS011;37438;55.674;13.074;2024-01-10T16:08:47;27.02;;;7.35;;
20232;SDS011;37438;55.674;13.074;2024-01-10T16:11:52;39.17;;;7.45;;
20232;SDS011;37438;55.674;13.074;2024-01-10T16:14:57;51.30;;;7.13;;
20232;SDS011;37438;55.674;13.074;2024-01-10T16:18:02;57.72;;;7.55;;
20232;SDS011;37438;55.674;13.074;2024-01-10T16:21:07;50.33;;;8.02;;
20232;SDS011;37438;55.674;13.074;2024-01-10T16:24:12;31.27;;;6.63;;
20232;SDS011;37438;55.674;13.074;2024-01-10T16:27:17;56.30;;;6.75;;
20232;SDS011;37438;55.674;13.074;2024-01-10T16:33:27;17.30;;;5.90;;
20232;SDS011;37438;55.674;13.074;2024-01-10T16:36:31;27.10;;;5.40;;
20232;SDS011;37438;55.674;13.074;2024-01-10T16:39:36;30.15;;;5.70;;
20232;SDS011;37438;55.674;13.074;2024-01-10T16:42:43;31.35;;;7.22;;
20232;SDS011;37438;55.674;13.074;2024-01-10T16:45:48;34.15;;;7.63;;
20232;SDS011;37438;55.674;13.074;2024-01-10T16:48:53;14.68;;;5.68;;
20232;SDS011;37438;55.674;13.074;2024-01-10T16:51:58;17.67;;;6.35;;
20232;SDS011;37438;55.674;13.074;2024-01-10T16:55:03;24.52;;;6.57;;
20232;SDS011;37438;55.674;13.074;2024-01-10T16:58:08;17.10;;;6.30;;
20232;SDS011;37438;55.674;13.074;2024-01-10T17:01:14;26.20;;;6.63;;
20232;SDS011;37438;55.674;13.074;2024-01-10T17:04:18;11.35;;;4.95;;
20232;SDS011;37438;55.674;13.074;2024-01-10T17:07:23;11.18;;;6.05;;
20232;SDS011;37438;55.674;13.074;2024-01-10T17:10:28;15.95;;;6.35;;
20232;SDS011;37438;55.674;13.074;2024-01-10T17:13:33;18.08;;;6.28;;
20232;SDS011;37438;55.674;13.074;2024-01-10T17:16:38;13.30;;;5.35;;
20232;SDS011;37438;55.674;13.074;2024-01-10T17:19:42;12.57;;;5.43;;
20232;SDS011;37438;55.674;13.074;2024-01-10T17:22:47;15.73;;;6.03;;
20232;SDS011;37438;55.674;13.074;2024-01-10T17:25:52;10.35;;;5.72;;
20232;SDS011;37438;55.674;13.074;2024-01-10T17:28:58;17.98;;;7.00;;
20232;SDS011;37438;55.674;13.074;2024-01-10T17:32:05;16.67;;;6.63;;
20232;SDS011;37438;55.674;13.074;2024-01-10T17:35:10;9.95;;;5.65;;
20232;SDS011;37438;55.674;13.074;2024-01-10T17:38:20;7.63;;;5.05;;
20232;SDS011;37438;55.674;13.074;2024-01-10T17:41:25;9.07;;;5.82;;
20232;SDS011;37438;55.674;13.074;2024-01-10T17:44:29;11.50;;;5.68;;
20232;SDS011;37438;55.674;13.074;2024-01-10T17:47:35;21.05;;;5.85;;
20232;SDS011;37438;55.674;13.074;2024-01-10T17:50:40;10.13;;;5.45;;
20232;SDS011;37438;55.674;13.074;2024-01-10T17:53:45;9.55;;;5.88;;
20232;SDS011;37438;55.674;13.074;2024-01-10T17:56:50;8.70;;;4.28;;
20232;SDS011;37438;55.674;13.074;2024-01-10T17:59:55;9.43;;;5.55;;
20232;SDS011;37438;55.674;13.074;2024-01-10T18:03:00;25.30;;;7.45;;
20232;SDS011;37438;55.674;13.074;2024-01-10T18:06:05;17.42;;;6.65;;
20232;SDS011;37438;55.674;13.074;2024-01-10T18:09:12;18.63;;;7.65;;
20232;SDS011;37438;55.674;13.074;2024-01-10T18:12:19;19.60;;;8.77;;
20232;SDS011;37438;55.674;13.074;2024-01-10T18:15:23;51.92;;;8.00;;
20232;SDS011;37438;55.674;13.074;2024-01-10T18:18:28;19.42;;;7.95;;
20232;SDS011;37438;55.674;13.074;2024-01-10T18:21:36;28.73;;;8.20;;
20232;SDS011;37438;55.674;13.074;2024-01-10T18:24:41;21.60;;;8.82;;
20232;SDS011;37438;55.674;13.074;2024-01-10T18:30:51;17.83;;;8.70;;
20232;SDS011;37438;55.674;13.074;2024-01-10T18:33:59;12.68;;;7.10;;
20232;SDS011;37438;55.674;13.074;2024-01-10T18:37:05;12.32;;;6.80;;
20232;SDS011;37438;55.674;13.074;2024-01-10T18:40:12;12.55;;;6.72;;
20232;SDS011;37438;55.674;13.074;2024-01-10T18:43:17;11.73;;;6.35;;
20232;SDS011;37438;55.674;13.074;2024-01-10T18:46:22;7.75;;;5.78;;
20232;SDS011;37438;55.674;13.074;2024-01-10T18:49:27;8.68;;;5.85;;
20232;SDS011;37438;55.674;13.074;2024-01-10T18:52:32;8.63;;;5.75;;
20232;SDS011;37438;55.674;13.074;2024-01-10T18:55:37;8.65;;;5.78;;
20232;SDS011;37438;55.674;13.074;2024-01-10T18:58:42;8.57;;;6.40;;
20232;SDS011;37438;55.674;13.074;2024-01-10T19:01:47;12.60;;;7.13;;